Time;durP1;ratioP1;P1;durP2;ratioP2;P2;SDS_P1;SDS_P2;PMS_P1;PMS_P2;Temp;Humidity;BMP_temperature;BMP_pressure;BME280_temperature;BME280_humidity;BME280_pressure;Samples;Min_cycle;Max_cycle;Signal;HPM_P1;HPM_P2
2024/04/01 00:01:14;;;;;;;2.47;0.60;;;13.90;99.90;;;;;;5009518;28;20200;-74
2024/04/01 00:03:39;;;;;;;1.33;0.50;;;13.90;99.90;;;;;;4976172;28;20254;-74
2024/04/01 00:06:05;;;;;;;1.40;0.57;;;13.90;99.90;;;;;;4950426;28;20642;-74
2024/04/01 00:08:31;;;;;;;1.30;0.53;;;13.90;99.90;;;;;;4934856;29;20188;-74
2024/04/01 00:10:56;;;;;;;1.60;0.50;;;13.90;99.90;;;;;;4950743;28;21165;-74
2024/04/01 00:13:22;;;;;;;1.53;0.40;;;13.80;99.90;;;;;;4934640;29;20196;-74
2024/04/01 00:15:48;;;;;;;1.23;0.40;;;13.90;99.90;;;;;;4950776;28;20176;-74
2024/04/01 00:18:14;;;;;;;1.40;0.50;;;13.90;99.90;;;;;;4951588;28;20769;-74
2024/04/01 00:20:40;;;;;;;1.90;0.50;;;13.90;99.90;;;;;;4951714;28;20653;-74
2024/04/01 00:23:06;;;;;;;1.30;0.50;;;13.90;99.90;;;;;;4953548;28;20200;-74
2024/04/01 00:25:32;;;;;;;1.40;0.50;;;13.90;99.90;;;;;;4950540;28;20177;-74
2024/04/01 00:27:58;;;;;;;2.15;0.50;;;13.90;99.90;;;;;;4950170;28;20550;-74
2024/04/01 00:30:24;;;;;;;1.92;0.50;;;13.90;99.90;;;;;;4951711;28;20272;-74
2024/04/01 00:32:50;;;;;;;2.40;0.40;;;13.90;99.90;;;;;;4950430;28;20200;-74
2024/04/01 00:35:17;;;;;;;1.40;0.50;;;13.90;99.90;;;;;;4950335;28;21159;-74
2024/04/01 00:37:43;;;;;;;2.10;0.50;;;13.90;99.90;;;;;;4951313;28;20611;-74
2024/04/01 00:40:09;;;;;;;1.30;0.50;;;13.90;99.90;;;;;;4951554;28;20596;-74
2024/04/01 00:42:35;;;;;;;1.40;0.50;;;13.90;99.90;;;;;;4949095;28;20624;-74
2024/04/01 00:45:01;;;;;;;3.90;0.40;;;13.90;99.90;;;;;;4951401;28;20603;-74
2024/04/01 00:47:27;;;;;;;1.40;0.60;;;13.90;99.90;;;;;;4950045;28;20953;-74
2024/04/01 00:49:55;;;;;;;2.13;0.52;;;13.90;99.90;;;;;;4934251;28;20234;-74
2024/04/01 00:52:22;;;;;;;1.63;0.50;;;13.90;99.90;;;;;;4951252;28;20235;-74
2024/04/01 00:54:49;;;;;;;1.30;0.50;;;13.90;99.90;;;;;;4951386;28;20256;-74
2024/04/01 00:57:15;;;;;;;1.40;0.50;;;13.90;99.90;;;;;;4949558;29;20208;-74
2024/04/01 00:59:41;;;;;;;1.70;0.87;;;13.90;99.90;;;;;;4952329;28;20591;-74
2024/04/01 01:02:07;;;;;;;2.13;0.60;;;13.90;99.90;;;;;;4951103;28;20620;-74
2024/04/01 01:04:35;;;;;;;1.33;0.50;;;13.90;99.90;;;;;;4949848;28;20182;-74
2024/04/01 01:07:02;;;;;;;1.80;1.08;;;13.90;99.90;;;;;;4950647;28;20595;-74
2024/04/01 01:09:28;;;;;;;1.70;0.60;;;13.90;99.90;;;;;;4933913;29;20180;-74
2024/04/01 01:11:56;;;;;;;2.53;0.50;;;13.90;99.90;;;;;;4950848;28;20726;-74
2024/04/01 01:14:21;;;;;;;1.60;0.57;;;13.90;99.90;;;;;;4949706;28;20173;-74
2024/04/01 01:16:47;;;;;;;1.40;0.50;;;13.80;99.90;;;;;;4933630;29;21142;-74
2024/04/01 01:19:15;;;;;;;1.87;0.70;;;13.80;99.90;;;;;;4949475;28;20208;-74
2024/04/01 01:21:42;;;;;;;3.73;0.60;;;13.80;99.90;;;;;;4949458;28;20635;-74
2024/04/01 01:24:08;;;;;;;1.60;0.60;;;13.80;99.90;;;;;;4949461;28;20774;-74
2024/04/01 01:26:34;;;;;;;2.50;0.70;;;13.80;99.90;;;;;;4951098;28;20691;-74
2024/04/01 01:29:00;;;;;;;1.63;0.55;;;13.70;99.90;;;;;;4950874;28;20207;-74
2024/04/01 01:31:26;;;;;;;2.40;0.60;;;13.70;99.90;;;;;;4950857;28;20546;-74
2024/04/01 01:33:53;;;;;;;1.70;0.50;;;13.70;99.90;;;;;;4949496;28;20200;-75
2024/04/01 01:36:19;;;;;;;1.70;0.50;;;13.70;99.90;;;;;;4952236;28;20622;-75
2024/04/01 01:38:45;;;;;;;1.47;0.60;;;13.70;99.90;;;;;;4949402;29;20664;-75
2024/04/01 01:41:11;;;;;;;1.50;0.60;;;13.70;99.90;;;;;;4949283;29;20600;-74
2024/04/01 01:43:36;;;;;;;1.60;0.60;;;13.70;99.90;;;;;;4950470;28;20623;-75
2024/04/01 01:46:02;;;;;;;2.27;0.60;;;13.70;99.90;;;;;;4949138;28;20184;-75
2024/04/01 01:48:28;;;;;;;1.57;0.70;;;13.70;99.90;;;;;;4950265;28;20177;-75
2024/04/01 01:50:53;;;;;;;1.60;0.60;;;13.70;99.90;;;;;;4950653;28;20176;-74
2024/04/01 01:53:19;;;;;;;1.23;0.50;;;13.70;99.90;;;;;;4949964;28;20200;-75
2024/04/01 01:55:44;;;;;;;1.37;0.50;;;13.70;99.90;;;;;;4949646;28;20176;-74
2024/04/01 01:58:10;;;;;;;2.13;0.50;;;13.70;99.90;;;;;;4945129;28;20548;-74
2024/04/01 02:00:36;;;;;;;1.77;0.60;;;13.70;99.90;;;;;;4976742;28;20819;-75
2024/04/01 02:03:03;;;;;;;3.63;0.50;;;13.70;99.90;;;;;;5005474;28;20208;-75
2024/04/01 02:05:32;;;;;;;2.97;0.52;;;13.70;99.90;;;;;;4950936;28;20192;-75
2024/04/01 02:07:58;;;;;;;1.97;0.60;;;13.70;99.90;;;;;;4948848;28;20188;-75
2024/04/01 02:10:24;;;;;;;1.67;0.70;;;13.60;99.90;;;;;;4950245;28;20938;-74
2024/04/01 02:12:50;;;;;;;1.70;0.53;;;13.60;99.90;;;;;;4951726;28;20200;-74
2024/04/01 02:15:20;;;;;;;1.60;0.60;;;13.60;99.90;;;;;;4951134;29;20587;-75
2024/04/01 02:17:45;;;;;;;2.03;0.50;;;13.60;99.90;;;;;;4949841;28;20338;-74
2024/04/01 02:20:15;;;;;;;4.33;0.60;;;13.60;99.90;;;;;;4948723;28;20275;-74
2024/04/01 02:22:43;;;;;;;1.42;0.50;;;13.60;99.90;;;;;;4949631;28;20766;-74
2024/04/01 02:25:08;;;;;;;1.60;0.60;;;13.60;99.90;;;;;;4951348;28;20271;-74
2024/04/01 02:27:34;;;;;;;2.33;0.50;;;13.60;99.90;;;;;;4955194;28;20743;-74
2024/04/01 02:30:00;;;;;;;2.37;0.60;;;13.60;99.90;;;;;;4948754;28;20657;-74
2024/04/01 02:32:26;;;;;;;1.63;0.77;;;13.60;99.90;;;;;;4948534;28;20249;-75
2024/04/01 02:34:52;;;;;;;1.50;0.60;;;13.50;99.90;;;;;;4948480;28;20267;-74
2024/04/01 02:37:18;;;;;;;2.23;0.63;;;13.50;99.90;;;;;;4949466;28;20206;-74
2024/04/01 02:39:43;;;;;;;1.60;0.50;;;13.50;99.90;;;;;;4948637;28;20180;-75
2024/04/01 02:42:09;;;;;;;1.43;0.70;;;13.50;99.90;;;;;;4949714;28;20663;-75
2024/04/01 02:44:34;;;;;;;1.63;0.60;;;13.50;99.90;;;;;;4932501;29;20168;-75
2024/04/01 02:47:00;;;;;;;1.40;0.50;;;13.50;99.90;;;;;;4954525;28;20188;-75
2024/04/01 02:49:27;;;;;;;1.30;0.50;;;13.60;99.90;;;;;;4949327;28;20180;-75
2024/04/01 02:51:53;;;;;;;1.43;0.53;;;13.50;99.90;;;;;;4950355;29;20957;-75
2024/04/01 02:54:20;;;;;;;1.30;0.50;;;13.60;99.90;;;;;;4948318;28;20600;-75
2024/04/01 02:56:46;;;;;;;3.37;0.53;;;13.60;99.90;;;;;;4955068;28;20172;-75
2024/04/01 02:59:11;;;;;;;1.60;0.50;;;13.60;99.90;;;;;;4932325;28;21298;-74
2024/04/01 03:01:40;;;;;;;2.63;0.60;;;13.60;99.90;;;;;;4949601;28;20658;-74
2024/04/01 03:04:06;;;;;;;1.75;0.60;;;13.60;99.90;;;;;;4932240;29;20202;-75
2024/04/01 03:06:32;;;;;;;1.88;0.52;;;13.60;99.90;;;;;;4952169;28;20243;-75
2024/04/01 03:08:59;;;;;;;1.77;0.60;;;13.50;99.90;;;;;;4919849;28;20223;-75
2024/04/01 03:11:25;;;;;;;1.80;0.65;;;13.50;99.90;;;;;;4952775;28;20184;-75
2024/04/01 03:13:50;;;;;;;2.37;0.70;;;13.50;99.90;;;;;;4935545;29;20223;-75
2024/04/01 03:16:18;;;;;;;1.50;0.60;;;13.50;99.90;;;;;;4935268;28;20684;-75
2024/04/01 03:18:44;;;;;;;1.50;0.63;;;13.50;99.90;;;;;;4952827;28;20626;-75
2024/04/01 03:21:09;;;;;;;2.03;0.70;;;13.50;99.90;;;;;;4959018;28;20180;-75
2024/04/01 03:23:35;;;;;;;1.50;0.60;;;13.50;99.90;;;;;;4935177;28;20224;-74
2024/04/01 03:26:01;;;;;;;1.40;0.60;;;13.50;99.90;;;;;;4952653;28;20176;-74
2024/04/01 03:28:27;;;;;;;1.80;0.87;;;13.50;99.90;;;;;;4954492;28;20187;-74
2024/04/01 03:30:53;;;;;;;1.50;0.50;;;13.50;99.90;;;;;;4952464;28;21205;-75
2024/04/01 03:33:19;;;;;;;1.83;0.50;;;13.40;99.90;;;;;;4952529;28;20710;-75
2024/04/01 03:35:45;;;;;;;1.70;0.60;;;13.40;99.90;;;;;;4935454;29;20714;-75
2024/04/01 03:38:11;;;;;;;1.63;0.60;;;13.40;99.90;;;;;;4950920;29;20642;-75
2024/04/01 03:40:41;;;;;;;1.40;0.60;;;13.40;99.90;;;;;;4952431;29;20230;-75
2024/04/01 03:43:08;;;;;;;2.78;0.60;;;13.40;99.90;;;;;;4950820;28;20208;-75
2024/04/01 03:45:34;;;;;;;1.50;0.60;;;13.30;99.90;;;;;;4960219;28;20630;-75
2024/04/01 03:48:02;;;;;;;1.60;0.70;;;13.30;99.90;;;;;;4951021;28;20206;-75
2024/04/01 03:50:28;;;;;;;1.60;0.60;;;13.30;99.90;;;;;;4950969;28;20623;-75
2024/04/01 03:52:54;;;;;;;1.80;0.67;;;13.30;99.90;;;;;;4950858;28;20235;-75
2024/04/01 03:55:20;;;;;;;1.50;0.60;;;13.20;99.90;;;;;;4933592;28;20597;-75
2024/04/01 03:57:46;;;;;;;2.60;0.60;;;13.20;99.90;;;;;;4974424;28;20287;-75
2024/04/01 04:00:13;;;;;;;1.80;0.60;;;13.20;99.90;;;;;;4960906;28;20189;-75
2024/04/01 04:02:42;;;;;;;1.85;0.80;;;13.20;99.90;;;;;;5035277;28;20196;-75
2024/04/01 04:05:10;;;;;;;1.85;0.63;;;13.20;99.90;;;;;;4950038;28;20177;-75
2024/04/01 04:07:36;;;;;;;1.30;0.50;;;13.20;99.90;;;;;;4937380;28;20186;-75
2024/04/01 04:10:03;;;;;;;1.70;0.65;;;13.20;99.90;;;;;;4950777;28;20185;-75
2024/04/01 04:12:31;;;;;;;1.70;0.70;;;13.20;99.90;;;;;;4979876;28;20211;-75
2024/04/01 04:14:59;;;;;;;2.10;0.70;;;13.30;99.90;;;;;;4951914;28;20259;-75
2024/04/01 04:17:24;;;;;;;1.65;0.70;;;13.30;99.90;;;;;;4950370;28;20287;-75
2024/04/01 04:19:50;;;;;;;2.00;0.70;;;13.30;99.90;;;;;;4950720;28;20196;-75
2024/04/01 04:22:15;;;;;;;1.87;0.70;;;13.30;99.90;;;;;;4950422;28;20215;-75
2024/04/01 04:24:42;;;;;;;1.33;0.50;;;13.30;99.90;;;;;;4951883;29;20192;-75
2024/04/01 04:27:08;;;;;;;2.55;0.60;;;13.40;99.90;;;;;;4951563;28;20313;-75
2024/04/01 04:29:34;;;;;;;1.87;0.70;;;13.40;99.90;;;;;;4950621;28;20169;-75
2024/04/01 04:32:11;;;;;;;1.80;0.60;;;13.40;99.90;;;;;;4934495;28;20195;-75
2024/04/01 04:34:37;;;;;;;3.05;0.60;;;13.40;99.90;;;;;;4951599;28;20242;-75
2024/04/01 04:37:05;;;;;;;1.93;0.63;;;13.40;99.90;;;;;;4980077;28;20546;-75
2024/04/01 04:39:35;;;;;;;1.50;0.50;;;13.50;99.90;;;;;;5000825;28;20635;-75
2024/04/01 04:42:01;;;;;;;1.77;0.70;;;13.50;99.90;;;;;;4961234;28;20177;-75
2024/04/01 04:44:28;;;;;;;2.90;0.60;;;13.50;99.90;;;;;;4951458;28;20588;-75
2024/04/01 04:46:53;;;;;;;1.40;0.60;;;13.50;99.90;;;;;;4974431;23;21039;-82
2024/04/01 04:49:19;;;;;;;1.53;0.70;;;13.50;99.90;;;;;;5051772;28;20722;-81
2024/04/01 04:51:45;;;;;;;2.50;0.63;;;13.50;99.90;;;;;;5052206;28;20588;-82
2024/04/01 04:54:11;;;;;;;1.60;0.60;;;13.50;99.90;;;;;;5050847;28;20184;-80
2024/04/01 04:56:37;;;;;;;1.50;0.57;;;13.50;99.90;;;;;;5052108;28;20580;-80
2024/04/01 04:59:03;;;;;;;2.23;0.90;;;13.50;99.90;;;;;;5033382;28;20700;-81
2024/04/01 05:01:31;;;;;;;1.45;0.55;;;13.50;99.90;;;;;;5031416;28;20174;-81
2024/04/01 05:03:57;;;;;;;1.47;0.53;;;13.50;99.90;;;;;;5051802;28;20173;-80
2024/04/01 05:06:23;;;;;;;1.30;0.60;;;13.50;99.90;;;;;;5034845;28;20623;-80
2024/04/01 05:08:48;;;;;;;1.60;0.60;;;13.50;99.90;;;;;;5042416;28;21115;-80
2024/04/01 05:11:14;;;;;;;1.20;0.40;;;13.50;99.90;;;;;;5032212;28;20268;-79
2024/04/01 05:13:40;;;;;;;2.07;0.50;;;13.50;99.90;;;;;;5015938;28;20174;-80
2024/04/01 05:16:06;;;;;;;1.53;0.60;;;13.50;99.90;;;;;;5052069;28;20192;-80
2024/04/01 05:18:35;;;;;;;1.70;0.60;;;13.50;99.90;;;;;;5037525;28;20209;-80
2024/04/01 05:21:04;;;;;;;2.85;0.70;;;13.40;99.90;;;;;;5038847;28;20185;-80
2024/04/01 05:23:30;;;;;;;1.40;0.60;;;13.40;99.90;;;;;;5036979;28;20205;-80
2024/04/01 05:25:55;;;;;;;1.90;0.70;;;13.40;99.90;;;;;;5042428;28;20162;-80
2024/04/01 05:28:21;;;;;;;2.40;0.90;;;13.40;99.90;;;;;;5044439;28;20224;-80
2024/04/01 05:30:52;;;;;;;2.03;0.50;;;13.30;99.90;;;;;;5045303;28;20186;-79
2024/04/01 05:33:33;;;;;;;2.97;0.60;;;13.30;99.90;;;;;;5044365;28;21008;-80
2024/04/01 05:36:02;;;;;;;2.23;0.70;;;13.30;99.90;;;;;;5044013;28;20189;-81
2024/04/01 05:38:27;;;;;;;1.95;0.70;;;13.20;99.90;;;;;;5035783;28;20681;-81
2024/04/01 05:40:53;;;;;;;1.60;0.60;;;13.20;99.90;;;;;;5035424;28;20200;-82
2024/04/01 05:43:19;;;;;;;1.40;0.70;;;13.10;99.90;;;;;;5033156;28;20577;-81
2024/04/01 05:45:49;;;;;;;1.70;0.70;;;13.00;99.90;;;;;;5040116;28;20638;-81
2024/04/01 05:48:16;;;;;;;1.90;0.80;;;12.90;99.90;;;;;;5024003;28;20889;-82
2024/04/01 05:50:52;;;;;;;1.83;0.60;;;12.80;99.90;;;;;;5047838;28;20600;-79
2024/04/01 05:53:18;;;;;;;1.55;0.63;;;12.60;99.90;;;;;;5032480;28;20591;-77
2024/04/01 05:55:45;;;;;;;1.50;0.60;;;12.50;99.90;;;;;;5032267;28;20196;-76
2024/04/01 05:58:11;;;;;;;2.05;0.60;;;12.40;99.90;;;;;;5027099;28;20731;-77
2024/04/01 06:00:37;;;;;;;1.80;0.55;;;12.30;99.90;;;;;;5031775;28;20212;-77
2024/04/01 06:03:05;;;;;;;1.67;0.60;;;12.20;99.90;;;;;;5030573;28;20227;-76
2024/04/01 06:05:32;;;;;;;1.70;0.60;;;12.10;99.90;;;;;;5014696;28;20169;-76
2024/04/01 06:07:58;;;;;;;1.80;0.80;;;12.10;99.90;;;;;;5023080;28;20266;-76
2024/04/01 06:10:23;;;;;;;1.20;0.50;;;12.20;99.90;;;;;;5036153;28;20177;-77
2024/04/01 06:12:52;;;;;;;1.50;0.57;;;12.20;99.90;;;;;;5032297;28;20663;-77
2024/04/01 06:15:18;;;;;;;1.35;0.50;;;12.20;99.90;;;;;;5016965;28;20204;-77
2024/04/01 06:17:44;;;;;;;2.17;0.90;;;12.20;99.90;;;;;;5035017;28;20201;-78
2024/04/01 06:20:10;;;;;;;2.07;0.60;;;12.20;99.90;;;;;;5033197;28;20240;-78
2024/04/01 06:22:37;;;;;;;1.60;0.60;;;12.20;99.90;;;;;;5032644;28;20181;-77
2024/04/01 06:25:03;;;;;;;2.20;0.57;;;12.30;99.90;;;;;;5031628;28;20190;-76
2024/04/01 06:27:30;;;;;;;2.35;0.70;;;12.30;99.90;;;;;;5029337;28;20750;-76
2024/04/01 06:29:56;;;;;;;3.67;0.73;;;12.30;99.90;;;;;;5013199;28;20182;-78
2024/04/01 06:32:21;;;;;;;4.20;1.17;;;12.30;99.90;;;;;;5032559;28;20181;-78
2024/04/01 06:34:47;;;;;;;2.13;1.20;;;12.30;99.90;;;;;;5036559;28;20640;-77
2024/04/01 06:37:13;;;;;;;1.30;0.50;;;12.30;99.90;;;;;;5029274;28;20206;-77
2024/04/01 06:39:39;;;;;;;2.00;0.63;;;12.30;99.90;;;;;;5030049;28;20185;-76
2024/04/01 06:42:04;;;;;;;1.50;0.60;;;12.30;99.90;;;;;;5033861;28;20193;-77
2024/04/01 06:44:30;;;;;;;2.30;0.60;;;12.30;99.90;;;;;;5034913;28;20186;-76
2024/04/01 06:46:56;;;;;;;1.60;0.80;;;12.30;99.90;;;;;;5034621;28;20638;-76
2024/04/01 06:49:22;;;;;;;1.73;0.63;;;12.30;99.90;;;;;;5034663;28;20562;-77
2024/04/01 06:51:47;;;;;;;1.33;0.60;;;12.40;99.90;;;;;;5017685;28;20588;-77
2024/04/01 06:54:13;;;;;;;2.50;0.70;;;12.40;99.90;;;;;;5037907;28;20263;-76
2024/04/01 06:56:42;;;;;;;1.40;0.70;;;12.40;99.90;;;;;;5045493;28;20177;-77
2024/04/01 06:59:07;;;;;;;1.40;0.60;;;12.50;99.90;;;;;;5050545;28;20200;-77
2024/04/01 07:01:33;;;;;;;1.40;0.57;;;12.50;99.90;;;;;;5033122;28;20704;-76
2024/04/01 07:03:59;;;;;;;1.57;0.50;;;12.60;99.90;;;;;;5034404;28;20806;-76
2024/04/01 07:06:24;;;;;;;1.40;0.60;;;12.60;99.90;;;;;;5033786;28;20268;-76
2024/04/01 07:08:51;;;;;;;1.50;0.60;;;12.70;99.90;;;;;;5032858;28;20198;-76
2024/04/01 07:11:17;;;;;;;1.60;0.60;;;12.80;99.90;;;;;;5034079;28;20252;-76
2024/04/01 07:13:43;;;;;;;1.30;0.60;;;12.90;99.90;;;;;;5033006;28;20178;-76
2024/04/01 07:16:08;;;;;;;1.23;0.50;;;13.00;99.90;;;;;;5034323;28;20253;-76
2024/04/01 07:18:35;;;;;;;1.50;0.60;;;13.00;99.90;;;;;;5049200;28;20205;-77
2024/04/01 07:21:03;;;;;;;2.15;0.70;;;13.00;99.90;;;;;;5050412;28;20182;-79
2024/04/01 07:23:28;;;;;;;2.42;0.80;;;13.10;99.90;;;;;;5034104;28;20536;-79
2024/04/01 07:25:54;;;;;;;1.60;0.70;;;13.10;99.90;;;;;;5034224;28;20736;-78
2024/04/01 07:28:20;;;;;;;1.83;0.70;;;13.10;99.90;;;;;;5049601;28;20209;-77
2024/04/01 07:30:45;;;;;;;1.40;0.60;;;13.00;99.90;;;;;;5044091;28;20181;-77
2024/04/01 07:33:11;;;;;;;1.40;0.67;;;13.10;99.90;;;;;;5034035;28;20587;-77
2024/04/01 07:35:37;;;;;;;1.70;0.80;;;13.10;99.90;;;;;;5033846;28;20584;-78
2024/04/01 07:38:03;;;;;;;1.83;0.70;;;13.00;99.90;;;;;;5033681;28;20686;-79
2024/04/01 07:40:28;;;;;;;1.90;0.70;;;13.00;99.90;;;;;;5034117;28;20177;-79
2024/04/01 07:42:54;;;;;;;1.70;0.70;;;13.00;99.90;;;;;;5033907;28;20178;-76
2024/04/01 07:45:20;;;;;;;1.50;0.70;;;13.00;99.90;;;;;;5033765;28;20707;-76
2024/04/01 07:47:45;;;;;;;1.60;0.77;;;13.00;99.90;;;;;;5033286;28;20648;-76
2024/04/01 07:50:11;;;;;;;2.27;0.70;;;12.90;99.90;;;;;;5049168;28;20186;-76
2024/04/01 07:52:37;;;;;;;1.63;0.70;;;12.90;99.90;;;;;;5033085;28;20182;-76
2024/04/01 07:55:06;;;;;;;1.30;0.60;;;12.90;99.90;;;;;;5034051;28;20177;-79
2024/04/01 07:57:31;;;;;;;1.30;0.60;;;12.90;99.90;;;;;;5032462;28;20644;-78
2024/04/01 07:59:58;;;;;;;1.40;0.70;;;12.90;99.90;;;;;;5026267;28;20540;-81
2024/04/01 08:02:24;;;;;;;1.75;0.70;;;12.90;99.90;;;;;;5023403;28;20173;-82
2024/04/01 08:04:50;;;;;;;1.25;0.55;;;12.90;99.90;;;;;;5033393;28;20193;-78
2024/04/01 08:07:16;;;;;;;1.70;0.80;;;12.90;99.90;;;;;;5036859;28;20186;-78
2024/04/01 08:09:42;;;;;;;3.47;0.70;;;12.90;99.90;;;;;;5032325;28;20595;-78
2024/04/01 08:12:08;;;;;;;1.50;0.70;;;12.90;99.90;;;;;;5033293;28;20181;-78
2024/04/01 08:14:35;;;;;;;2.10;0.70;;;12.90;99.90;;;;;;5033248;28;20591;-78
2024/04/01 08:17:00;;;;;;;1.90;0.77;;;12.90;99.90;;;;;;5015144;28;20173;-78
2024/04/01 08:19:28;;;;;;;1.55;0.80;;;12.80;99.90;;;;;;5031594;28;20209;-78
2024/04/01 08:21:54;;;;;;;1.83;1.08;;;12.80;99.90;;;;;;5032009;28;20182;-78
2024/04/01 08:24:19;;;;;;;1.50;0.80;;;12.80;99.90;;;;;;5031638;28;20185;-78
2024/04/01 08:26:45;;;;;;;2.27;1.00;;;12.80;99.90;;;;;;5031402;28;20204;-78
2024/04/01 08:29:13;;;;;;;1.70;0.90;;;12.80;99.90;;;;;;5033093;28;20576;-78
2024/04/01 08:31:39;;;;;;;5.15;3.10;;;12.80;99.90;;;;;;5031751;28;20371;-78
2024/04/01 08:34:04;;;;;;;7.23;3.43;;;12.80;99.90;;;;;;5031397;28;20266;-78
2024/04/01 08:36:30;;;;;;;7.30;4.20;;;12.80;99.90;;;;;;5029101;28;20212;-78
2024/04/01 08:38:56;;;;;;;5.10;2.93;;;12.80;99.90;;;;;;5032742;28;20223;-78
2024/04/01 08:41:30;;;;;;;5.33;1.80;;;12.70;99.90;;;;;;5031591;28;20240;-78
2024/04/01 08:44:13;;;;;;;3.00;1.20;;;12.80;99.90;;;;;;5032894;28;20181;-78
2024/04/01 08:46:42;;;;;;;2.25;1.13;;;12.70;99.90;;;;;;5047468;28;20204;-78
2024/04/01 08:49:13;;;;;;;5.57;1.23;;;12.70;99.90;;;;;;5032291;28;20221;-78
2024/04/01 08:51:41;;;;;;;2.88;1.00;;;12.70;99.90;;;;;;5031843;28;20216;-78
2024/04/01 08:54:08;;;;;;;2.83;1.38;;;12.70;99.90;;;;;;5031042;28;20204;-78
2024/04/01 08:56:41;;;;;;;1.70;0.98;;;12.70;99.90;;;;;;5031992;28;20186;-78
2024/04/01 08:59:09;;;;;;;1.60;1.00;;;12.60;99.90;;;;;;5030117;28;20217;-78
2024/04/01 09:01:36;;;;;;;1.83;0.90;;;12.60;99.90;;;;;;5029015;28;20174;-77
2024/04/01 09:04:02;;;;;;;1.88;1.02;;;12.60;99.90;;;;;;5029653;28;20184;-77
2024/04/01 09:06:29;;;;;;;2.97;1.13;;;12.60;99.90;;;;;;5028449;28;20174;-77
2024/04/01 09:08:56;;;;;;;2.60;1.10;;;12.60;99.90;;;;;;5030511;28;20193;-77
2024/04/01 09:11:23;;;;;;;3.67;1.80;;;12.60;99.90;;;;;;5031148;28;20185;-77
2024/04/01 09:13:52;;;;;;;2.80;2.10;;;12.60;99.90;;;;;;5030989;28;20186;-76
2024/04/01 09:16:26;;;;;;;4.40;2.45;;;12.60;99.90;;;;;;5033071;28;20234;-77
2024/04/01 09:18:52;;;;;;;7.03;2.50;;;12.60;99.90;;;;;;5032851;28;20209;-77
2024/04/01 09:21:21;;;;;;;3.58;2.22;;;12.70;99.90;;;;;;5035271;28;20182;-77
2024/04/01 09:23:47;;;;;;;4.65;3.28;;;12.70;99.90;;;;;;5030703;28;20311;-77
2024/04/01 09:26:14;;;;;;;5.18;2.22;;;12.70;99.90;;;;;;5030375;28;20180;-77
2024/04/01 09:28:40;;;;;;;3.58;2.70;;;12.70;99.90;;;;;;5030496;28;20273;-77
2024/04/01 09:31:08;;;;;;;4.28;2.58;;;12.70;99.90;;;;;;5031716;28;20255;-77
2024/04/01 09:33:34;;;;;;;3.53;2.70;;;12.70;99.90;;;;;;5030540;28;20237;-77
2024/04/01 09:36:00;;;;;;;3.50;2.40;;;12.80;99.90;;;;;;5030859;28;20186;-77
2024/04/01 09:38:26;;;;;;;3.40;3.10;;;12.80;99.90;;;;;;5031775;28;20241;-77
2024/04/01 09:40:56;;;;;;;3.90;2.87;;;12.80;99.90;;;;;;5030838;28;20714;-77
2024/04/01 09:43:32;;;;;;;3.60;3.30;;;12.80;99.90;;;;;;5030334;28;20235;-77
2024/04/01 09:45:58;;;;;;;4.57;3.20;;;12.80;99.90;;;;;;5038290;28;20185;-77
2024/04/01 09:48:26;;;;;;;3.13;2.83;;;12.90;99.90;;;;;;5030705;28;20271;-78
2024/04/01 09:51:00;;;;;;;2.35;2.13;;;12.90;99.90;;;;;;5030039;28;20201;-76
2024/04/01 09:53:28;;;;;;;3.13;2.53;;;13.00;99.90;;;;;;5029863;28;20182;-77
2024/04/01 09:56:00;;;;;;;2.90;2.60;;;13.00;99.90;;;;;;5029585;28;20607;-76
2024/04/01 09:58:44;;;;;;;3.33;3.03;;;13.10;99.90;;;;;;5034877;28;20212;-76
2024/04/01 10:01:55;;;;;;;3.42;3.13;;;13.10;99.90;;;;;;5031701;28;20178;-78
2024/04/01 10:04:49;;;;;;;3.30;2.25;;;13.10;99.90;;;;;;5010497;28;20190;-78
2024/04/01 10:08:17;;;;;;;2.33;2.13;;;13.20;99.90;;;;;;5029664;28;20284;-78
2024/04/01 10:10:43;;;;;;;2.95;2.00;;;13.20;99.90;;;;;;4990045;28;20171;-78
2024/04/01 10:13:49;;;;;;;3.60;1.97;;;13.30;99.90;;;;;;4990150;28;20179;-78
2024/04/01 10:16:53;;;;;;;2.67;2.03;;;13.20;99.90;;;;;;5027362;28;20189;-78
2024/04/01 10:19:42;;;;;;;2.40;1.67;;;13.20;99.90;;;;;;5031871;28;20582;-78
2024/04/01 10:22:50;;;;;;;2.65;2.05;;;13.10;99.90;;;;;;5036193;28;20226;-78
2024/04/01 10:25:36;;;;;;;3.33;1.65;;;13.00;99.90;;;;;;5025917;28;20200;-78
2024/04/01 10:28:30;;;;;;;4.63;1.50;;;13.00;99.90;;;;;;5045918;28;20209;-78
2024/04/01 10:31:26;;;;;;;3.83;1.90;;;13.00;99.90;;;;;;5024047;28;20208;-78
2024/04/01 10:34:16;;;;;;;1.52;1.10;;;13.10;99.90;;;;;;5031156;28;20220;-77
2024/04/01 10:37:04;;;;;;;1.70;1.10;;;13.10;99.90;;;;;;5036377;28;20178;-78
2024/04/01 10:39:49;;;;;;;2.20;1.50;;;13.20;99.90;;;;;;5024327;28;20208;-75
2024/04/01 10:42:17;;;;;;;3.25;1.42;;;13.20;99.90;;;;;;5031222;28;20177;-79
2024/04/01 10:44:57;;;;;;;2.03;1.47;;;13.30;99.90;;;;;;5030903;28;20178;-79
2024/04/01 10:48:04;;;;;;;1.63;1.13;;;13.30;99.90;;;;;;5030757;28;20623;-79
2024/04/01 10:50:53;;;;;;;2.25;1.35;;;13.30;99.90;;;;;;5027821;28;20608;-79
2024/04/01 10:53:25;;;;;;;2.77;1.30;;;13.30;99.90;;;;;;5046287;28;20196;-79
2024/04/01 10:56:41;;;;;;;2.25;1.20;;;13.40;99.90;;;;;;5038180;28;20588;-77
2024/04/01 10:59:28;;;;;;;2.50;1.38;;;13.40;99.90;;;;;;5029503;28;20320;-78
2024/04/01 11:02:08;;;;;;;1.70;1.10;;;13.40;99.90;;;;;;5030842;28;20535;-78
2024/04/01 11:04:59;;;;;;;2.53;1.30;;;13.40;99.90;;;;;;5029222;28;20272;-77
2024/04/01 11:07:46;;;;;;;2.22;1.58;;;13.50;99.90;;;;;;5028732;28;20612;-76
2024/04/01 11:10:31;;;;;;;1.80;1.10;;;13.50;99.90;;;;;;5028803;28;20187;-76
2024/04/01 11:13:01;;;;;;;2.63;1.50;;;13.60;99.90;;;;;;5028950;28;20580;-77
2024/04/01 11:15:27;;;;;;;2.63;1.50;;;13.60;99.90;;;;;;5031191;28;20626;-77
2024/04/01 11:17:59;;;;;;;5.80;1.67;;;13.60;99.90;;;;;;5012605;28;21205;-77
2024/04/01 11:20:39;;;;;;;3.23;1.60;;;13.60;99.90;;;;;;5029148;28;20588;-75
2024/04/01 11:23:37;;;;;;;2.30;1.40;;;13.70;99.90;;;;;;5021722;28;20580;-77
2024/04/01 11:26:22;;;;;;;4.87;1.40;;;13.70;99.90;;;;;;5039419;28;20201;-78
2024/04/01 11:29:02;;;;;;;2.63;1.40;;;13.70;99.90;;;;;;5036856;28;21367;-78
2024/04/01 11:31:31;;;;;;;2.60;1.20;;;13.70;99.90;;;;;;5042401;28;20603;-79
2024/04/01 11:34:27;;;;;;;2.90;1.17;;;13.80;99.90;;;;;;5025965;28;20898;-78
2024/04/01 11:37:13;;;;;;;2.47;1.50;;;13.80;99.90;;;;;;4991409;28;20602;-77
2024/04/01 11:39:44;;;;;;;2.67;1.00;;;13.80;99.90;;;;;;5033732;28;20659;-77
2024/04/01 11:42:13;;;;;;;6.53;2.77;;;13.80;99.90;;;;;;5033769;28;20686;-78
2024/04/01 11:44:40;;;;;;;4.30;2.90;;;13.90;99.90;;;;;;5032854;28;20938;-76
2024/04/01 11:47:07;;;;;;;5.93;2.23;;;13.90;99.90;;;;;;5025838;28;20580;-76
2024/04/01 11:49:40;;;;;;;3.43;2.07;;;13.90;99.90;;;;;;5037771;28;20585;-77
2024/04/01 11:52:17;;;;;;;9.07;1.47;;;13.90;99.90;;;;;;5057060;28;20665;-78
2024/04/01 11:54:44;;;;;;;2.63;0.90;;;13.90;99.90;;;;;;5033376;28;20603;-77
2024/04/01 11:57:24;;;;;;;2.80;1.00;;;14.00;99.90;;;;;;5031746;28;20642;-81
2024/04/01 11:59:50;;;;;;;2.35;0.88;;;14.00;99.90;;;;;;5029544;28;20977;-79
2024/04/01 12:02:18;;;;;;;2.40;0.90;;;14.00;99.90;;;;;;5033344;28;20185;-77
2024/04/01 12:04:44;;;;;;;3.93;1.47;;;14.10;99.90;;;;;;5033175;28;20576;-77
2024/04/01 12:07:15;;;;;;;2.33;1.10;;;14.10;99.90;;;;;;5032003;28;21168;-76
2024/04/01 12:09:41;;;;;;;5.40;1.00;;;14.20;99.90;;;;;;5031934;28;20626;-76
2024/04/01 12:12:10;;;;;;;2.33;0.90;;;14.20;99.90;;;;;;5031906;28;20596;-77
2024/04/01 12:14:39;;;;;;;1.70;0.83;;;14.30;99.90;;;;;;5032853;28;20586;-77
2024/04/01 12:17:08;;;;;;;2.33;0.87;;;14.30;99.90;;;;;;5032795;28;20588;-77
2024/04/01 12:19:36;;;;;;;2.40;1.60;;;14.40;99.90;;;;;;5031618;28;20709;-77
2024/04/01 12:22:05;;;;;;;6.43;1.20;;;14.50;99.90;;;;;;5033135;28;20684;-76
2024/04/01 12:24:32;;;;;;;1.80;0.80;;;14.50;99.90;;;;;;5031758;28;20687;-78
2024/04/01 12:27:01;;;;;;;4.27;1.17;;;14.60;99.90;;;;;;5050699;28;20631;-79
2024/04/01 12:29:31;;;;;;;4.90;1.87;;;14.70;99.90;;;;;;5032960;28;20588;-77
2024/04/01 12:31:57;;;;;;;3.20;1.30;;;14.80;99.90;;;;;;5024601;28;20672;-76
2024/04/01 12:34:24;;;;;;;3.10;1.00;;;14.80;99.90;;;;;;5031273;28;21208;-77
2024/04/01 12:36:52;;;;;;;2.80;1.00;;;14.90;99.90;;;;;;5025930;28;20182;-78
2024/04/01 12:39:18;;;;;;;2.20;1.00;;;14.90;99.90;;;;;;5014685;28;20693;-77
2024/04/01 12:41:44;;;;;;;2.50;1.13;;;14.90;99.90;;;;;;5047758;28;20659;-76
2024/04/01 12:44:13;;;;;;;2.33;1.27;;;15.00;99.90;;;;;;5031047;28;20589;-77
2024/04/01 12:46:41;;;;;;;2.73;1.30;;;14.90;99.90;;;;;;5032082;28;20584;-77
2024/04/01 12:49:15;;;;;;;3.60;1.57;;;14.90;99.90;;;;;;5030864;28;20647;-77
2024/04/01 12:51:42;;;;;;;3.50;1.20;;;15.00;99.90;;;;;;5032197;28;20580;-78
2024/04/01 12:54:34;;;;;;;2.47;1.27;;;14.90;99.90;;;;;;5014515;28;20591;-76
2024/04/01 12:57:06;;;;;;;4.40;1.10;;;14.90;99.90;;;;;;5024063;28;20596;-76
2024/04/01 13:00:06;;;;;;;2.50;1.07;;;14.90;99.90;;;;;;5031946;28;20960;-76